Terminal Aerodrome Forecast
Issued by NWS

Home | Current Version | Previous Version | Text Only | Print | Product List | Glossary On
Versions: 1 2 3 4 5 6 7 8 9 10 11 12 13 14 15 16 17 18 19 20 21 22 23 24 25 26 27 28 29
000
FTUS43 KDTX 302300
TAFYIP
TAF
KYIP 302320Z 3100/3124 19013G19KT P6SM SCT050 BKN150
     FM310100 20013KT 5SM -SHRA BKN040 OVC080
      TEMPO 3101/3103 4SM TSRA OVC025CB
     FM310600 21012KT P6SM BKN030
     FM310900 23007KT 3SM BR BKN015 OVC025
     FM311400 23010KT P6SM BKN025
     FM311900 20006KT P6SM BKN040=

USA.gov is the U.S. government's official web portal to all federal, state and local government web resources and services.